Keno, Oregon
Current Conditions -  °F | °C
As of 8:53 PM on Tuesday 21 Oct 2014 (Local Time) from KLMT Reporting Station
Clear Clear  
Wind Chill: 42°   Ceiling: Unl
Heat Index: 42°   Visibility: 10mi
Dew Point: 37°   Wind: 3mph
Humidity: 82%   Direction: 150°SSE
Pressure: 30.05"   Gusts: NA
Location:  42.13°N, 121.93°W
Report Text: KLMT 220353Z AUTO 15003KT 10SM CLR 06/03 A3005 RMK AO2 SLP174 T00560028
Loading
Personal Weather Stations






























Interactive Weather Map
Tropical Storm Tracking
New forecast layout! Learn more

10-Day Weather Forecast

Advertisements
Track Severe Weather on mobile